createdAt,value
2019-03-26T00:00:51.076Z,39.60
2019-03-26T00:04:05.239Z,22.13
2019-03-26T00:07:00.763Z,19.37
2019-03-26T00:10:04.623Z,17.20
2019-03-26T00:13:08.388Z,17.00
2019-03-26T00:16:12.056Z,15.87
2019-03-26T00:19:15.768Z,14.37
2019-03-26T00:22:19.509Z,19.70
2019-03-26T00:25:23.181Z,21.70
2019-03-26T00:28:26.890Z,16.83
2019-03-26T00:31:30.591Z,23.90
2019-03-26T00:34:34.309Z,15.93
2019-03-26T00:37:38.043Z,18.73
2019-03-26T00:40:41.716Z,17.63
2019-03-26T00:43:45.424Z,14.47
2019-03-26T00:46:49.371Z,21.40
2019-03-26T00:49:53.131Z,22.70
2019-03-26T00:52:56.987Z,29.97
2019-03-26T00:56:00.639Z,23.20
2019-03-26T00:59:04.467Z,28.30
2019-03-26T01:02:08.219Z,26.83
2019-03-26T01:05:11.988Z,21.27
2019-03-26T01:08:15.796Z,25.83
2019-03-26T01:11:20.578Z,27.17
2019-03-26T01:14:24.335Z,25.97
2019-03-26T01:17:29.172Z,23.00
2019-03-26T01:20:32.976Z,25.53
2019-03-26T01:23:36.694Z,25.17
2019-03-26T01:26:40.496Z,19.10
2019-03-26T01:29:44.298Z,20.93
2019-03-26T01:32:48.108Z,22.87
2019-03-26T01:35:51.820Z,19.53
2019-03-26T01:38:55.527Z,15.50
2019-03-26T01:41:59.220Z,24.50
2019-03-26T01:45:02.943Z,22.67
2019-03-26T01:48:06.836Z,20.53
2019-03-26T01:51:11.735Z,27.43
2019-03-26T01:54:15.395Z,20.67
2019-03-26T01:57:19.099Z,28.20
2019-03-26T02:00:22.859Z,24.73
2019-03-26T02:03:26.516Z,23.17
2019-03-26T02:06:30.217Z,28.03
2019-03-26T02:09:34.036Z,25.70
2019-03-26T02:12:37.844Z,28.53
2019-03-26T02:15:41.600Z,27.63
2019-03-26T02:18:45.396Z,29.10
2019-03-26T02:21:49.120Z,28.43
2019-03-26T02:24:52.772Z,24.43
2019-03-26T02:27:56.835Z,27.87
2019-03-26T02:31:00.615Z,35.43
2019-03-26T02:34:04.658Z,31.03
2019-03-26T02:37:08.468Z,26.70
2019-03-26T02:40:12.236Z,26.03
2019-03-26T02:43:16.098Z,35.83
2019-03-26T02:46:19.841Z,27.20
2019-03-26T02:49:23.596Z,33.23
2019-03-26T02:52:27.418Z,37.27
2019-03-26T02:55:31.107Z,43.87
2019-03-26T02:58:34.781Z,39.90
2019-03-26T03:01:38.527Z,33.03
2019-03-26T03:04:42.405Z,31.83
2019-03-26T03:07:46.306Z,32.27
2019-03-26T03:10:50.060Z,37.60
2019-03-26T03:13:53.726Z,33.10
2019-03-26T03:16:57.676Z,31.97
2019-03-26T03:20:01.473Z,38.00
2019-03-26T03:23:05.161Z,29.40
2019-03-26T03:26:08.996Z,32.70
2019-03-26T03:29:12.779Z,35.67
2019-03-26T03:32:16.622Z,37.70
2019-03-26T03:35:20.292Z,31.17
2019-03-26T03:38:24.003Z,28.10
2019-03-26T03:41:28.086Z,38.47
2019-03-26T03:44:31.821Z,26.53
2019-03-26T03:47:36.757Z,32.67
2019-03-26T03:50:41.638Z,31.27
2019-03-26T03:53:45.755Z,34.27
2019-03-26T03:56:52.216Z,33.37
2019-03-26T03:59:58.951Z,32.67
2019-03-26T04:03:03.352Z,36.23
2019-03-26T04:06:09.734Z,33.20
2019-03-26T04:09:13.564Z,33.03
2019-03-26T04:12:17.279Z,28.73
2019-03-26T04:15:21.071Z,30.00
2019-03-26T04:18:24.675Z,30.63
2019-03-26T04:21:28.441Z,31.23
2019-03-26T04:24:32.095Z,29.83
2019-03-26T04:27:37.171Z,30.50
2019-03-26T04:30:41.044Z,29.60
2019-03-26T04:33:44.752Z,31.67
2019-03-26T04:36:48.559Z,33.83
2019-03-26T04:39:52.297Z,29.73
2019-03-26T04:42:55.881Z,33.27
2019-03-26T04:45:59.580Z,36.23
2019-03-26T04:49:03.439Z,25.47
2019-03-26T04:52:07.100Z,35.70
2019-03-26T04:55:10.840Z,27.33
2019-03-26T04:58:14.503Z,31.90
2019-03-26T05:01:18.528Z,34.13
2019-03-26T05:04:22.117Z,38.47
2019-03-26T05:07:25.836Z,52.43
2019-03-26T05:10:31.169Z,35.27
2019-03-26T05:13:34.976Z,41.23
2019-03-26T05:16:38.694Z,33.63
2019-03-26T05:19:42.392Z,34.40
2019-03-26T05:22:46.205Z,36.13
2019-03-26T05:25:50.012Z,36.37
2019-03-26T05:28:53.838Z,37.67
2019-03-26T05:31:57.527Z,33.10
2019-03-26T05:35:02.168Z,42.27
2019-03-26T05:38:06.072Z,43.57
2019-03-26T05:41:10.637Z,42.30
2019-03-26T05:44:14.395Z,45.90
2019-03-26T05:47:18.100Z,46.97
2019-03-26T05:50:21.820Z,43.53
2019-03-26T05:53:25.528Z,40.73
2019-03-26T05:56:30.592Z,43.43
2019-03-26T05:59:34.375Z,38.60
2019-03-26T06:02:38.087Z,32.83
2019-03-26T06:05:41.776Z,38.07
2019-03-26T06:08:45.533Z,30.67
2019-03-26T06:11:49.224Z,32.30
2019-03-26T06:14:53.012Z,30.50
2019-03-26T06:17:57.760Z,17.60
2019-03-26T06:21:01.448Z,25.60
2019-03-26T06:24:05.193Z,24.73
2019-03-26T06:27:08.999Z,21.23
2019-03-26T06:30:12.877Z,23.20
2019-03-26T06:33:16.726Z,23.60
2019-03-26T06:36:20.480Z,23.87
2019-03-26T06:39:24.469Z,24.57
2019-03-26T06:42:28.147Z,18.97
2019-03-26T06:45:31.821Z,15.97
2019-03-26T06:48:35.564Z,18.73
2019-03-26T06:51:39.281Z,14.97
2019-03-26T06:54:43.043Z,22.47
2019-03-26T06:57:46.790Z,15.17
2019-03-26T07:00:50.664Z,22.07
2019-03-26T07:03:54.520Z,16.87
2019-03-26T07:06:58.184Z,22.87
2019-03-26T07:10:02.127Z,12.67
2019-03-26T07:13:05.835Z,16.63
2019-03-26T07:16:09.603Z,15.70
2019-03-26T07:19:13.425Z,12.90
2019-03-26T07:22:17.167Z,14.30
2019-03-26T07:25:21.042Z,13.47
2019-03-26T07:28:24.764Z,15.70
2019-03-26T07:31:28.456Z,10.43
2019-03-26T07:34:32.157Z,13.77
2019-03-26T07:37:45.137Z,12.80
2019-03-26T07:40:41.517Z,16.03
2019-03-26T07:43:45.267Z,6.00
2019-03-26T07:46:49.035Z,11.30
2019-03-26T07:49:52.849Z,8.18
2019-03-26T07:52:56.576Z,18.50
2019-03-26T07:56:00.303Z,16.40
2019-03-26T07:59:03.999Z,14.70
2019-03-26T08:02:08.704Z,9.75
2019-03-26T08:05:12.404Z,10.82
2019-03-26T08:08:16.131Z,8.17
2019-03-26T08:11:20.024Z,10.13
2019-03-26T08:14:23.845Z,8.30
2019-03-26T08:17:27.542Z,13.95
2019-03-26T08:20:31.260Z,12.47
2019-03-26T08:23:38.316Z,11.93
2019-03-26T08:26:41.432Z,5.28
2019-03-26T08:29:45.188Z,13.00
2019-03-26T08:32:48.948Z,10.50
2019-03-26T08:35:52.759Z,13.80
2019-03-26T08:38:56.698Z,9.15
2019-03-26T08:42:00.476Z,9.05
2019-03-26T08:45:04.595Z,18.50
2019-03-26T08:48:08.299Z,9.38
2019-03-26T08:51:12.107Z,8.00
2019-03-26T08:54:15.851Z,14.63
2019-03-26T08:57:19.636Z,9.35
2019-03-26T09:00:23.352Z,10.05
2019-03-26T09:03:27.244Z,10.40
2019-03-26T09:06:30.963Z,10.53
2019-03-26T09:09:34.659Z,11.00
2019-03-26T09:12:39.674Z,13.32
2019-03-26T09:15:43.512Z,12.40
2019-03-26T09:18:47.204Z,9.30
2019-03-26T09:21:51.023Z,12.93
2019-03-26T09:24:54.720Z,9.98
2019-03-26T09:27:58.543Z,10.60
2019-03-26T09:31:02.233Z,11.78
2019-03-26T09:34:05.960Z,8.95
2019-03-26T09:37:09.809Z,9.87
2019-03-26T09:40:13.817Z,4.78
2019-03-26T09:43:17.587Z,20.25
2019-03-26T09:46:21.319Z,8.43
2019-03-26T09:49:25.214Z,11.35
2019-03-26T09:52:28.930Z,12.45
2019-03-26T09:55:32.962Z,14.18
2019-03-26T09:58:36.844Z,10.25
2019-03-26T10:01:40.563Z,15.75
2019-03-26T10:05:00.108Z,16.87
2019-03-26T10:08:04.246Z,7.60
2019-03-26T10:11:08.083Z,6.08
2019-03-26T10:14:11.764Z,6.03
2019-03-26T10:17:15.488Z,9.15
2019-03-26T10:20:19.315Z,13.83
2019-03-26T10:23:22.988Z,18.48
2019-03-26T10:26:26.827Z,8.00
2019-03-26T10:29:31.318Z,7.87
2019-03-26T10:32:35.540Z,15.85
2019-03-26T10:35:39.288Z,6.75
2019-03-26T10:38:42.950Z,11.53
2019-03-26T10:41:47.005Z,12.82
2019-03-26T10:44:50.775Z,7.00
2019-03-26T10:47:54.489Z,10.08
2019-03-26T10:50:58.227Z,14.28
2019-03-26T10:54:01.883Z,12.33
2019-03-26T10:57:05.648Z,4.55
2019-03-26T11:00:09.420Z,6.78
2019-03-26T11:03:13.245Z,11.00
2019-03-26T11:06:17.068Z,5.45
2019-03-26T11:09:26.990Z,8.23
2019-03-26T11:12:26.396Z,5.55
2019-03-26T11:15:30.116Z,6.53
2019-03-26T11:18:33.794Z,10.85
2019-03-26T11:21:37.540Z,9.78
2019-03-26T11:24:41.307Z,3.30
2019-03-26T11:27:45.972Z,10.38
2019-03-26T11:30:49.773Z,5.95
2019-03-26T11:33:53.556Z,8.68
2019-03-26T11:36:57.479Z,4.15
2019-03-26T11:40:01.171Z,6.58
2019-03-26T11:43:05.907Z,5.25
2019-03-26T11:46:09.652Z,7.45
2019-03-26T11:49:13.324Z,4.78
2019-03-26T11:52:17.028Z,6.92
2019-03-26T11:55:21.926Z,3.85
2019-03-26T11:58:30.849Z,6.58
2019-03-26T12:01:31.568Z,3.05
2019-03-26T12:04:35.371Z,7.42
2019-03-26T12:07:39.076Z,3.67
2019-03-26T12:10:42.756Z,6.15
2019-03-26T12:13:46.464Z,4.15
2019-03-26T12:16:50.308Z,8.45
2019-03-26T12:19:53.976Z,7.20
2019-03-26T12:22:57.893Z,6.85
2019-03-26T12:26:01.736Z,7.15
2019-03-26T12:29:05.608Z,3.42
2019-03-26T12:32:09.300Z,5.10
2019-03-26T12:35:26.948Z,5.40
2019-03-26T12:38:30.760Z,6.97
2019-03-26T12:41:34.399Z,8.05
2019-03-26T12:44:38.076Z,5.25
2019-03-26T12:47:41.879Z,3.27
2019-03-26T12:50:45.876Z,1.62
2019-03-26T12:53:49.604Z,4.70
2019-03-26T12:56:53.546Z,3.58
2019-03-26T12:59:57.224Z,2.90
2019-03-26T13:03:00.912Z,3.87
2019-03-26T13:06:04.540Z,1.60
2019-03-26T13:09:09.161Z,3.80
2019-03-26T13:12:12.972Z,3.37
2019-03-26T13:15:16.668Z,5.00
2019-03-26T13:18:20.525Z,3.52
2019-03-26T13:21:24.189Z,3.77
2019-03-26T13:24:28.009Z,13.80
2019-03-26T13:27:31.720Z,8.78
2019-03-26T13:30:35.424Z,6.45
2019-03-26T13:33:39.128Z,7.40
2019-03-26T13:36:42.860Z,8.48
2019-03-26T13:39:46.544Z,5.78
2019-03-26T13:42:50.232Z,8.33
2019-03-26T13:45:53.856Z,4.90
2019-03-26T13:48:57.660Z,6.78
2019-03-26T13:52:01.606Z,4.90
2019-03-26T13:55:05.877Z,7.45
2019-03-26T13:58:09.534Z,7.03
2019-03-26T14:01:13.312Z,8.95
2019-03-26T14:04:17.156Z,9.68
2019-03-26T14:07:21.080Z,10.45
2019-03-26T14:10:24.935Z,4.17
2019-03-26T14:13:28.683Z,9.98
2019-03-26T14:16:32.356Z,9.30
2019-03-26T14:19:36.125Z,12.43
2019-03-26T14:22:39.823Z,6.95
2019-03-26T14:25:43.584Z,9.35
2019-03-26T14:28:47.427Z,10.98
2019-03-26T14:31:51.096Z,5.72
2019-03-26T14:34:54.807Z,7.50
2019-03-26T14:37:58.552Z,8.85
2019-03-26T14:41:02.212Z,5.12
2019-03-26T14:44:06.291Z,3.47
2019-03-26T14:47:11.068Z,5.15
2019-03-26T14:50:15.142Z,11.53
2019-03-26T14:53:18.881Z,7.87
2019-03-26T14:56:22.853Z,7.03
2019-03-26T14:59:26.607Z,8.93
2019-03-26T15:02:30.467Z,6.05
2019-03-26T15:05:34.384Z,9.73
2019-03-26T15:08:38.091Z,9.53
2019-03-26T15:11:41.859Z,6.17
2019-03-26T15:14:46.687Z,6.17
2019-03-26T15:17:50.537Z,5.65
2019-03-26T15:20:54.199Z,8.83
2019-03-26T15:23:57.932Z,7.00
2019-03-26T15:27:01.819Z,7.10
2019-03-26T15:30:05.947Z,10.53
2019-03-26T15:33:09.723Z,7.35
2019-03-26T15:36:13.452Z,9.70
2019-03-26T15:39:17.299Z,11.88
2019-03-26T15:42:21.153Z,12.75
2019-03-26T15:45:24.923Z,10.48
2019-03-26T15:48:28.591Z,12.55
2019-03-26T15:51:32.295Z,9.25
2019-03-26T15:54:36.035Z,4.97
2019-03-26T15:57:39.712Z,6.45
2019-03-26T16:00:43.519Z,7.85
2019-03-26T16:03:47.227Z,6.85
2019-03-26T16:06:50.936Z,5.10
2019-03-26T16:09:54.696Z,7.33
2019-03-26T16:12:58.336Z,7.87
2019-03-26T16:16:02.160Z,4.42
2019-03-26T16:19:05.973Z,6.75
2019-03-26T16:22:09.680Z,8.90
2019-03-26T16:25:13.729Z,7.28
2019-03-26T16:28:17.401Z,8.50
2019-03-26T16:31:22.848Z,8.93
2019-03-26T16:34:26.656Z,6.20
2019-03-26T16:37:30.359Z,10.88
2019-03-26T16:40:34.108Z,9.85
2019-03-26T16:43:37.764Z,11.90
2019-03-26T16:46:41.483Z,6.72
2019-03-26T16:49:45.185Z,8.53
2019-03-26T16:52:49.103Z,10.45
2019-03-26T16:55:53.939Z,6.40
2019-03-26T16:58:57.939Z,7.85
2019-03-26T17:02:01.871Z,15.75
2019-03-26T17:05:06.025Z,8.28
2019-03-26T17:08:10.911Z,4.80
2019-03-26T17:11:14.724Z,5.00
2019-03-26T17:14:19.489Z,8.05
2019-03-26T17:17:23.199Z,6.15
2019-03-26T17:20:27.008Z,11.35
2019-03-26T17:23:30.712Z,7.47
2019-03-26T17:26:34.524Z,7.47
2019-03-26T17:29:38.328Z,7.12
2019-03-26T17:32:42.135Z,8.38
2019-03-26T17:35:45.639Z,5.97
2019-03-26T17:38:49.367Z,9.43
2019-03-26T17:41:53.196Z,6.45
2019-03-26T17:44:58.388Z,4.50
2019-03-26T17:48:02.351Z,11.10
2019-03-26T17:51:06.019Z,4.12
2019-03-26T17:54:09.744Z,3.65
2019-03-26T17:57:13.468Z,18.82
2019-03-26T18:00:20.412Z,9.40
2019-03-26T18:03:26.722Z,6.95
2019-03-26T18:06:31.065Z,4.83
2019-03-26T18:09:35.125Z,9.58
2019-03-26T18:12:40.089Z,9.00
2019-03-26T18:15:44.114Z,9.03
2019-03-26T18:18:48.841Z,7.08
2019-03-26T18:21:52.502Z,10.95
2019-03-26T18:24:56.324Z,5.15
2019-03-26T18:28:00.049Z,11.33
2019-03-26T18:31:03.843Z,7.37
2019-03-26T18:34:07.792Z,6.60
2019-03-26T18:37:11.767Z,6.03
2019-03-26T18:40:15.866Z,6.83
2019-03-26T18:43:20.256Z,10.88
2019-03-26T18:46:24.007Z,9.30
2019-03-26T18:49:28.262Z,6.47
2019-03-26T18:52:31.935Z,6.95
2019-03-26T18:55:36.876Z,8.33
2019-03-26T18:58:40.719Z,6.12
2019-03-26T19:01:44.388Z,9.20
2019-03-26T19:04:48.248Z,4.45
2019-03-26T19:07:52.140Z,7.33
2019-03-26T19:11:37.912Z,10.15
2019-03-26T19:14:42.022Z,10.60
2019-03-26T19:17:45.937Z,9.00
2019-03-26T19:21:01.426Z,8.18
2019-03-26T19:24:04.112Z,8.78
2019-03-26T19:27:04.250Z,13.35
2019-03-26T19:30:07.619Z,6.35
2019-03-26T19:33:11.437Z,7.33
2019-03-26T19:36:15.123Z,14.25
2019-03-26T19:39:18.982Z,8.88
2019-03-26T19:42:22.963Z,4.85
2019-03-26T19:45:26.672Z,8.68
2019-03-26T19:48:30.512Z,8.40
2019-03-26T19:51:34.395Z,6.55
2019-03-26T19:54:38.207Z,13.05
2019-03-26T19:57:42.007Z,8.13
2019-03-26T20:00:45.724Z,8.00
2019-03-26T20:03:49.632Z,6.20
2019-03-26T20:06:53.335Z,6.03
2019-03-26T20:09:57.152Z,9.10
2019-03-26T20:13:00.836Z,8.63
2019-03-26T20:16:04.564Z,13.65
2019-03-26T20:19:08.248Z,10.90
2019-03-26T20:22:12.028Z,11.88
2019-03-26T20:25:15.817Z,7.83
2019-03-26T20:28:19.596Z,4.85
2019-03-26T20:31:23.445Z,7.17
2019-03-26T20:34:27.304Z,10.32
2019-03-26T20:37:31.620Z,10.90
2019-03-26T20:40:40.960Z,15.18
2019-03-26T20:43:45.707Z,12.90
2019-03-26T20:46:49.435Z,16.00
2019-03-26T20:49:53.369Z,9.28
2019-03-26T20:52:57.339Z,17.00
2019-03-26T20:56:01.576Z,15.23
2019-03-26T20:59:08.986Z,7.63
2019-03-26T21:02:12.663Z,13.83
2019-03-26T21:05:19.112Z,11.40
2019-03-26T21:08:22.944Z,8.13
2019-03-26T21:11:26.687Z,12.78
2019-03-26T21:14:30.463Z,12.70
2019-03-26T21:17:34.272Z,7.92
2019-03-26T21:20:38.111Z,12.37
2019-03-26T21:23:41.991Z,15.00
2019-03-26T21:26:50.671Z,14.40
2019-03-26T21:30:10.661Z,15.93
2019-03-26T21:33:08.406Z,13.23
2019-03-26T21:36:12.228Z,13.23
2019-03-26T21:39:25.999Z,8.50
2019-03-26T21:42:29.946Z,12.18
2019-03-26T21:45:35.220Z,13.80
2019-03-26T21:48:39.089Z,8.55
2019-03-26T21:51:42.832Z,15.70
2019-03-26T21:54:46.491Z,10.83
2019-03-26T21:57:50.220Z,11.33
2019-03-26T22:00:53.972Z,6.60
2019-03-26T22:03:57.727Z,5.80
2019-03-26T22:07:01.455Z,7.87
2019-03-26T22:10:06.943Z,11.50
2019-03-26T22:13:10.700Z,9.10
2019-03-26T22:16:14.503Z,11.67
2019-03-26T22:19:27.812Z,7.93
2019-03-26T22:22:23.859Z,8.87
2019-03-26T22:25:28.674Z,10.10
2019-03-26T22:28:32.404Z,12.30
2019-03-26T22:31:36.115Z,9.47
2019-03-26T22:34:39.923Z,12.97
2019-03-26T22:37:43.640Z,9.20
2019-03-26T22:40:47.335Z,9.80
2019-03-26T22:43:51.047Z,7.07
2019-03-26T22:46:54.738Z,11.87
2019-03-26T22:49:58.356Z,14.50
2019-03-26T22:53:02.066Z,14.37
2019-03-26T22:56:05.873Z,7.43
2019-03-26T22:59:09.616Z,11.10
2019-03-26T23:02:13.391Z,6.80
2019-03-26T23:05:17.426Z,8.70
2019-03-26T23:08:21.152Z,11.80
2019-03-26T23:11:24.924Z,11.30
2019-03-26T23:14:28.848Z,8.63
2019-03-26T23:17:32.724Z,11.40
2019-03-26T23:20:37.348Z,10.03
2019-03-26T23:23:41.194Z,7.43
2019-03-26T23:26:44.976Z,9.50
2019-03-26T23:29:48.915Z,7.70
2019-03-26T23:32:52.671Z,15.33
2019-03-26T23:35:56.431Z,4.33
2019-03-26T23:39:00.252Z,8.43
2019-03-26T23:42:04.112Z,7.83
2019-03-26T23:45:09.398Z,15.07
2019-03-26T23:48:13.167Z,10.43
2019-03-26T23:51:16.911Z,6.83
2019-03-26T23:54:20.721Z,11.80
2019-03-26T23:57:24.495Z,6.30
